Latest Weather Observations for Tewantin

IDQ60801

Issued at 11:02 am EST Sunday 26 February 2017 (issued every 30 minutes, with the page automatically refreshed every 10 minutes)

About weather observations | Map of weather stations | Latest weather observations for QLD | Other Formats
Station Details ID: 040908 Name: TEWANTIN RSL PARK Lat: -26.39 Lon: 153.04 Height: 6.4 m
Data from the previous 72 hours. | See also: Recent months at Tewantin
Date/Time
EST
Temp
°C
App
Temp
°C
Dew
Point
°C
Rel
Hum
%
Delta-T
°C
Wind Press
QNH
hPa
Press
MSL
hPa
Rain since
9am
mm
Dir  Spd
km/h
Gust
km/h
Spd
kts
Gust
kts
26/10:30am 27.8 28.5 19.6 61 5.3 SSE 15 20 8 11 1015.5 1015.5 0.0
26/10:00am 27.3 27.1 18.6 59 5.6 SE 17 28 9 15 1015.5 1015.5 0.0
26/09:30am 27.1 27.3 19.4 62 5.0 SE 17 28 9 15 1015.3 1015.3 0.0
26/09:00am 27.1 28.0 20.0 65 4.6 SSE 15 32 8 17 1015.3 1015.3 1.2
26/08:30am 26.3 26.3 18.9 63 4.7 S 17 30 9 16 1015.3 1015.3 1.2
26/08:00am 25.6 26.1 19.3 68 4.0 S 15 22 8 12 1015.1 1015.1 1.2
26/07:30am 23.9 24.3 19.0 74 3.1 S 15 19 8 10 1015.0 1015.0 1.2
26/07:00am 23.4 23.1 18.3 73 3.2 S 17 26 9 14 1014.6 1014.6 1.2
26/06:30am 22.6 23.3 18.8 79 2.4 S 13 19 7 10 1014.4 1014.4 1.2
26/06:00am 22.0 23.2 19.0 83 1.9 S 11 17 6 9 1014.1 1014.1 1.2
26/05:30am 21.8 23.4 19.2 85 1.6 S 9 13 5 7 1013.7 1013.7 1.2
26/05:00am 22.0 24.4 19.7 87 1.5 SE 6 19 3 10 1013.7 1013.7 1.2
26/04:30am 22.0 22.8 19.0 83 1.9 S 13 17 7 9 1013.3 1013.3 1.2
26/04:00am 22.1 22.5 19.1 83 1.9 SSW 15 22 8 12 1013.2 1013.2 1.2
26/03:30am 21.8 22.8 19.4 86 1.5 S 13 24 7 13 1013.1 1013.1 1.2
26/03:00am 21.9 23.0 19.6 87 1.5 S 13 19 7 10 1013.2 1013.2 1.2
26/02:30am 21.7 23.7 20.0 90 1.1 S 9 19 5 10 1013.0 1013.0 1.2
26/02:00am 21.9 24.1 20.4 91 1.0 S 9 11 5 6 1013.2 1013.2 0.6
26/01:30am 22.2 24.4 20.5 90 1.1 S 9 13 5 7 1013.4 1013.4 0.6
26/01:00am 22.5 25.8 20.8 90 1.1 SSW 4 9 2 5 1013.9 1013.9 0.2
26/12:30am 22.4 24.2 20.3 88 1.4 SSW 11 15 6 8 1014.3 1014.3 0.2
26/12:00am 22.8 23.9 19.6 82 2.0 S 13 20 7 11 1014.5 1014.5 0.0
 
Date/Time
EST
Temp
°C
App
Temp
°C
Dew
Point
°C
Rel
Hum
%
Delta-T
°C
Wind Press
QNH
hPa
Press
MSL
hPa
Rain since
9am
mm
Dir  Spd
km/h
Gust
km/h
Spd
kts
Gust
kts
25/11:30pm 22.9 24.3 19.5 81 2.2 S 11 17 6 9 1015.1 1015.1 0.0
25/11:00pm 24.6 25.4 18.1 67 4.1 S 11 15 6 8 1015.5 1015.5 0.0
25/10:30pm 25.4 25.8 18.1 64 4.6 S 13 24 7 13 1015.5 1015.5 0.0
25/10:00pm 25.5 25.9 18.2 64 4.6 SSE 13 22 7 12 1015.5 1015.5 0.0
25/09:30pm 25.6 26.9 19.3 68 4.0 SSE 11 22 6 12 1015.5 1015.5 0.0
25/09:00pm 25.7 25.8 18.4 64 4.6 SSE 15 26 8 14 1015.4 1015.4 0.0
25/08:30pm 25.7 26.4 18.9 66 4.3 SSE 13 24 7 13 1015.2 1015.2 0.0
25/08:00pm 25.9 26.2 18.8 65 4.5 SSE 15 26 8 14 1015.0 1015.0 0.0
25/07:30pm 25.8 26.3 19.2 67 4.2 SE 15 26 8 14 1014.7 1014.7 0.0
25/07:00pm 25.7 26.2 19.3 67 4.1 SE 15 24 8 13 1014.5 1014.5 0.0
25/06:30pm 25.9 26.9 19.5 68 4.1 SSE 13 22 7 12 1014.1 1014.1 0.0
25/06:00pm 25.9 26.1 20.2 71 3.7 SE 19 30 10 16 1013.8 1013.8 0.0
25/05:30pm 26.4 26.3 19.5 66 4.5 SE 19 28 10 15 1013.5 1013.5 0.0
25/05:00pm 26.5 26.8 19.6 66 4.5 SE 17 30 9 16 1013.5 1013.5 0.0
25/04:30pm 26.7 25.8 17.8 58 5.6 SE 19 30 10 16 1013.6 1013.6 0.0
25/04:00pm 27.2 26.9 18.2 58 5.7 SE 17 28 9 15 1013.5 1013.5 0.0
25/03:30pm 27.5 26.6 18.2 57 5.9 SE 20 33 11 18 1013.4 1013.4 0.0
25/03:00pm 27.4 26.3 17.8 55 6.1 SE 20 32 11 17 1013.6 1013.6 0.0
25/02:30pm 27.6 26.5 18.6 58 5.8 SE 22 33 12 18 1013.9 1013.9 0.0
25/02:00pm 28.0 27.2 18.1 55 6.3 SE 19 35 10 19 1014.2 1014.2 0.0
25/01:30pm 27.5 26.5 17.9 55 6.1 SE 20 32 11 17 1014.5 1014.5 0.0
25/01:00pm 27.7 26.9 18.4 57 5.9 SE 20 33 11 18 1014.7 1014.7 0.0
25/12:30pm 27.7 26.0 17.3 53 6.5 SE 22 37 12 20 1015.1 1015.1 0.0
25/12:00pm 27.8 27.0 17.9 54 6.3 SE 19 28 10 15 1015.3 1015.3 0.0
25/11:30am 27.9 26.9 18.0 55 6.3 ESE 20 30 11 16 1015.6 1015.6 0.0
25/11:00am 27.5 27.0 16.8 52 6.7 SE 15 28 8 15 1015.9 1015.9 0.0
25/10:30am 27.8 26.8 16.7 50 6.9 SE 17 28 9 15 1016.4 1016.4 0.0
25/10:00am 27.7 26.8 16.9 51 6.7 SSE 17 30 9 16 1016.5 1016.5 0.0
25/09:30am 27.4 26.1 16.7 52 6.7 SSE 19 30 10 16 1016.5 1016.5 0.0
25/09:00am 27.0 26.1 16.9 54 6.3 SE 17 33 9 18 1016.5 1016.5 0.0
25/08:30am 26.5 26.6 18.4 61 5.2 S 15 26 8 14 1016.5 1016.5 0.0
25/08:00am 26.0 25.7 18.2 62 4.9 S 17 24 9 13 1016.5 1016.5 0.0
25/07:30am 25.0 25.4 18.2 66 4.3 S 13 20 7 11 1016.3 1016.3 0.0
25/07:00am 23.8 24.9 18.9 74 3.1 S 11 17 6 9 1016.0 1016.0 0.0
25/06:30am 21.9 22.9 18.7 82 2.0 S 11 17 6 9 1015.9 1015.9 0.0
25/06:00am 21.6 22.9 18.4 82 2.0 S 9 13 5 7 1015.7 1015.7 0.0
25/05:30am 21.5 22.8 18.5 83 1.9 SSW 9 11 5 6 1015.5 1015.5 0.0
25/05:00am 21.3 23.0 18.5 84 1.8 SSW 7 11 4 6 1015.3 1015.3 0.0
25/04:30am 20.9 22.5 18.3 85 1.6 SSW 7 9 4 5 1015.0 1015.0 0.0
25/04:00am 21.1 22.7 18.3 84 1.7 SSW 7 9 4 5 1014.9 1014.9 0.0
25/03:30am 21.2 22.7 18.0 82 2.0 S 7 9 4 5 1014.7 1014.7 0.0
25/03:00am 21.8 22.9 18.0 79 2.4 SSW 9 11 5 6 1014.6 1014.6 0.0
25/02:30am 22.1 23.3 18.3 79 2.4 SSW 9 13 5 7 1014.7 1014.7 0.0
25/02:00am 22.1 23.7 18.3 79 2.4 SSW 7 13 4 7 1014.8 1014.8 0.0
25/01:30am 22.1 23.9 18.3 79 2.4 SW 6 9 3 5 1015.0 1015.0 0.0
25/01:00am 22.4 24.3 18.6 79 2.4 SSW 6 7 3 4 1015.1 1015.1 0.0
25/12:30am 23.0 24.8 18.3 75 2.9 SW 6 9 3 5 1015.3 1015.3 0.0
25/12:00am 23.2 25.7 18.1 73 3.2 SW 2 7 1 4 1015.5 1015.5 0.0
 
Date/Time
EST
Temp
°C
App
Temp
°C
Dew
Point
°C
Rel
Hum
%
Delta-T
°C
Wind Press
QNH
hPa
Press
MSL
hPa
Rain since
9am
mm
Dir  Spd
km/h
Gust
km/h
Spd
kts
Gust
kts
24/11:30pm 23.9 25.7 18.3 71 3.5 S 6 7 3 4 1015.9 1015.9 0.0
24/11:00pm 24.4 25.8 17.9 67 4.1 SSE 7 11 4 6 1016.3 1016.3 0.0
24/10:30pm 24.6 25.6 17.8 66 4.3 SSE 9 17 5 9 1016.5 1016.5 0.0
24/10:00pm 24.6 26.1 18.1 67 4.1 SSE 7 13 4 7 1016.6 1016.6 0.0
24/09:30pm 24.7 25.9 18.2 67 4.1 SSE 9 15 5 8 1016.9 1016.9 0.0
24/09:00pm 24.6 25.8 18.3 68 4.0 SSE 9 17 5 9 1016.9 1016.9 0.0
24/08:30pm 24.7 26.0 18.4 68 4.0 SSE 9 17 5 9 1016.9 1016.9 0.0
24/08:00pm 24.9 26.3 18.6 68 4.0 SE 9 15 5 8 1016.8 1016.8 0.0
24/07:30pm 25.2 26.7 18.9 68 4.0 ESE 9 17 5 9 1016.6 1016.6 0.0
24/07:00pm 25.2 26.6 18.6 67 4.2 SE 9 17 5 9 1016.3 1016.3 0.0
24/06:30pm 25.4 26.5 18.8 67 4.2 ESE 11 20 6 11 1016.2 1016.2 0.0
24/06:00pm 25.8 26.7 19.2 67 4.2 ESE 13 22 7 12 1016.1 1016.1 0.0
24/05:30pm 26.1 26.1 19.0 65 4.5 ESE 17 30 9 16 1015.7 1015.7 0.0
24/05:00pm 26.2 25.7 18.6 63 4.8 SE 19 28 10 15 1015.7 1015.7 0.0
24/04:30pm 26.6 26.1 18.7 62 5.0 ESE 19 28 10 15 1015.8 1015.8 0.0
24/04:00pm 26.9 26.7 19.8 65 4.6 ESE 20 30 11 16 1015.8 1015.8 0.0
24/03:30pm 27.8 27.7 19.6 61 5.3 ESE 19 32 10 17 1015.7 1015.7 0.0
24/03:00pm 27.6 26.9 18.6 58 5.8 ESE 20 28 11 15 1015.7 1015.7 0.0
24/02:30pm 28.2 28.2 18.9 57 6.0 SE 17 26 9 14 1015.9 1015.9 0.0
24/02:00pm 28.8 28.8 18.9 55 6.4 SE 17 28 9 15 1016.1 1016.1 0.0
24/01:30pm 28.0 27.5 17.8 54 6.5 SE 17 26 9 14 1016.5 1016.5 0.0
24/01:00pm 28.7 28.6 18.8 55 6.4 SE 17 28 9 15 1016.6 1016.6 0.0
24/12:30pm 28.4 28.8 19.9 60 5.6 SE 17 28 9 15 1016.8 1016.8 0.0
24/12:00pm 28.3 28.6 19.5 59 5.7 SE 17 26 9 14 1017.0 1017.0 0.0
24/11:30am 28.0 28.4 19.8 61 5.3 SE 17 28 9 15 1017.4 1017.4 0.0
24/11:00am 26.9 26.4 17.9 57 5.7 SE 17 28 9 15 1017.8 1017.8 0.0
24/10:30am 27.1 26.0 17.3 55 6.1 SE 19 30 10 16 1018.0 1018.0 0.0
24/10:00am 26.9 26.5 17.1 55 6.1 ESE 15 24 8 13 1018.3 1018.3 0.0
24/09:30am 27.6 27.1 16.9 52 6.7 SE 15 26 8 14 1018.3 1018.3 0.0
24/09:00am 27.0 26.9 16.9 54 6.3 SE 13 24 7 13 1018.2 1018.2 0.0
24/08:30am 26.1 27.1 17.7 60 5.3 SSE 9 17 5 9 1018.2 1018.2 0.0
24/08:00am 25.9 26.3 17.3 59 5.4 SSE 11 20 6 11 1017.9 1017.9 0.0
24/07:30am 24.6 25.7 18.1 67 4.1 SSW 9 13 5 7 1017.7 1017.7 0.0
24/07:00am 23.6 25.4 18.7 74 3.1 SSW 7 11 4 6 1017.6 1017.6 0.0
24/06:30am 23.0 24.3 18.5 76 2.8 SSW 9 13 5 7 1017.2 1017.2 0.0
24/06:00am 22.8 23.9 18.1 75 2.9 S 9 11 5 6 1016.7 1016.7 0.0
24/05:30am 22.9 23.9 17.8 73 3.2 S 9 15 5 8 1016.5 1016.5 0.0
24/05:00am 23.1 23.7 17.8 72 3.3 S 11 15 6 8 1016.4 1016.4 0.0
24/04:30am 23.0 24.1 17.9 73 3.2 S 9 13 5 7 1016.3 1016.3 0.0
24/04:00am 23.0 24.4 17.7 72 3.3 SSW 7 11 4 6 1016.3 1016.3 0.0
24/03:30am 23.3 24.7 17.7 71 3.5 S 7 11 4 6 1016.3 1016.3 0.0
24/03:00am 23.3 24.8 18.0 72 3.3 SSW 7 9 4 5 1016.5 1016.5 0.0
24/02:30am 23.5 25.0 17.7 70 3.6 SSW 6 13 3 7 1016.6 1016.6 0.0
24/02:00am 23.9 25.4 17.6 68 3.9 SSW 6 11 3 6 1016.8 1016.8 0.0
24/01:30am 24.5 26.3 18.4 69 3.9 S 6 9 3 5 1017.1 1017.1 0.0
24/01:00am 24.5 26.3 18.7 70 3.7 ESE 7 11 4 6 1017.1 1017.1 0.0
24/12:30am 24.6 25.4 17.3 64 4.5 SE 9 15 5 8 1017.6 1017.6 0.0
24/12:00am 25.0 25.1 17.5 63 4.7 SE 13 26 7 14 1017.7 1017.7 0.0
 
Date/Time
EST
Temp
°C
App
Temp
°C
Dew
Point
°C
Rel
Hum
%
Delta-T
°C
Wind Press
QNH
hPa
Press
MSL
hPa
Rain since
9am
mm
Dir  Spd
km/h
Gust
km/h
Spd
kts
Gust
kts
23/11:30pm 24.9 25.2 17.1 62 4.8 SE 11 20 6 11 1017.8 1017.8 0.0
23/11:00pm 25.1 25.1 17.1 61 5.0 SE 13 20 7 11 1017.9 1017.9 0.0
23/10:30pm 25.4 25.8 18.1 64 4.6 SE 13 20 7 11 1018.0 1018.0 0.0
23/10:00pm 25.4 26.0 17.8 62 4.8 SE 11 17 6 9 1018.3 1018.3 0.0
23/09:30pm 25.3 26.5 18.2 64 4.5 SE 9 19 5 10 1018.4 1018.4 0.0
23/09:00pm 25.4 25.9 18.3 65 4.5 SE 13 20 7 11 1018.6 1018.6 0.0
23/08:30pm 25.4 26.4 18.6 66 4.3 SE 11 20 6 11 1018.6 1018.6 0.0
23/08:00pm 25.2 25.9 17.9 64 4.6 SE 11 22 6 12 1018.3 1018.3 0.0
23/07:30pm 25.2 25.7 18.4 66 4.3 SE 13 20 7 11 1018.0 1018.0 0.0
23/07:00pm 25.3 26.2 18.5 66 4.3 SE 11 17 6 9 1017.8 1017.8 0.0
23/06:30pm 25.4 25.9 18.3 65 4.5 SE 13 20 7 11 1017.5 1017.5 0.0
23/06:00pm 25.8 26.4 18.7 65 4.5 SE 13 26 7 14 1017.2 1017.2 0.0
23/05:30pm 26.1 26.7 18.5 63 4.8 SE 13 24 7 13 1017.1 1017.1 0.0
23/05:00pm 25.9 25.3 18.8 65 4.5 E 20 30 11 16 1017.1 1017.1 0.0
23/04:30pm 26.2 25.7 18.6 63 4.8 ESE 19 30 10 16 1016.9 1016.9 0.0
23/04:00pm 26.6 26.0 19.7 66 4.5 ESE 22 37 12 20 1016.8 1016.8 0.0
23/03:30pm 26.8 26.2 18.9 62 5.1 ESE 20 35 11 19 1016.9 1016.9 0.0
23/03:00pm 27.4 26.5 18.1 57 5.9 ESE 20 32 11 17 1016.9 1016.9 0.0
23/02:30pm 28.4 27.6 17.9 53 6.7 ESE 19 32 10 17 1016.9 1016.9 0.0
23/02:00pm 27.3 25.8 17.8 56 6.0 ESE 22 33 12 18 1017.2 1017.2 0.0
23/01:30pm 27.2 26.1 17.4 55 6.2 ESE 19 33 10 18 1017.3 1017.3 0.0
23/01:00pm 28.3 27.5 18.1 54 6.5 ESE 19 32 10 17 1017.5 1017.5 0.0
23/12:30pm 27.6 26.7 17.7 54 6.3 SSE 19 30 10 16 1017.8 1017.8 0.0
23/12:00pm 29.5 29.2 18.3 51 7.2 SSE 17 30 9 16 1018.0 1018.0 0.0
23/11:30am 28.5 28.2 18.3 54 6.5 SSE 17 28 9 15 1018.4 1018.4 0.0

Other Formats:

Comma delimited format used in spreadsheet applications
http://www.bom.gov.au/fwo/IDQ60801/IDQ60801.94570.axf

JavaScript Object Notation format (JSON) in row-major order
http://www.bom.gov.au/fwo/IDQ60801/IDQ60801.94570.json